sensor_id;sensor_type;location;lat;lon;timestamp;pressure;altitude;pressure_sealevel;temperature;humidity
10071;BME280;5074;53.720;10.014;2022-09-14T00:01:29;100311.47;;;12.47;100.00
10071;BME280;5074;53.720;10.014;2022-09-14T00:03:59;100310.53;;;12.48;100.00
10071;BME280;5074;53.720;10.014;2022-09-14T00:06:28;100302.66;;;12.45;100.00
10071;BME280;5074;53.720;10.014;2022-09-14T00:08:59;100305.25;;;12.47;100.00
10071;BME280;5074;53.720;10.014;2022-09-14T00:11:30;100300.22;;;12.41;100.00
10071;BME280;5074;53.720;10.014;2022-09-14T00:14:00;100297.53;;;12.41;100.00
10071;BME280;5074;53.720;10.014;2022-09-14T00:16:30;100298.72;;;12.35;100.00
10071;BME280;5074;53.720;10.014;2022-09-14T00:18:59;100293.44;;;12.33;100.00
10071;BME280;5074;53.720;10.014;2022-09-14T00:21:31;100298.91;;;12.30;100.00
10071;BME280;5074;53.720;10.014;2022-09-14T00:24:01;100287.50;;;12.27;100.00
10071;BME280;5074;53.720;10.014;2022-09-14T00:26:29;100278.97;;;12.19;100.00
10071;BME280;5074;53.720;10.014;2022-09-14T00:28:58;100293.94;;;12.23;100.00
10071;BME280;5074;53.720;10.014;2022-09-14T00:31:34;100299.47;;;12.20;100.00
10071;BME280;5074;53.720;10.014;2022-09-14T00:34:04;100284.41;;;12.17;100.00
10071;BME280;5074;53.720;10.014;2022-09-14T00:36:37;100281.03;;;12.13;100.00
10071;BME280;5074;53.720;10.014;2022-09-14T00:39:07;100278.50;;;12.10;100.00
10071;BME280;5074;53.720;10.014;2022-09-14T00:41:36;100268.56;;;12.12;100.00
10071;BME280;5074;53.720;10.014;2022-09-14T00:44:06;100267.91;;;12.07;100.00
10071;BME280;5074;53.720;10.014;2022-09-14T00:46:36;100259.97;;;12.06;100.00
10071;BME280;5074;53.720;10.014;2022-09-14T00:49:10;100259.19;;;12.04;100.00
10071;BME280;5074;53.720;10.014;2022-09-14T00:51:42;100255.69;;;12.02;100.00
10071;BME280;5074;53.720;10.014;2022-09-14T00:54:14;100246.81;;;12.01;100.00
10071;BME280;5074;53.720;10.014;2022-09-14T00:56:42;100245.06;;;12.00;100.00
10071;BME280;5074;53.720;10.014;2022-09-14T00:59:14;100246.09;;;11.97;100.00
10071;BME280;5074;53.720;10.014;2022-09-14T01:01:43;100244.50;;;11.93;100.00
10071;BME280;5074;53.720;10.014;2022-09-14T01:04:11;100234.56;;;11.95;100.00
10071;BME280;5074;53.720;10.014;2022-09-14T01:06:42;100241.84;;;11.93;100.00
10071;BME280;5074;53.720;10.014;2022-09-14T01:09:25;100238.16;;;11.96;100.00
10071;BME280;5074;53.720;10.014;2022-09-14T01:12:08;100240.75;;;11.97;100.00
10071;BME280;5074;53.720;10.014;2022-09-14T01:14:45;100239.00;;;11.96;100.00
10071;BME280;5074;53.720;10.014;2022-09-14T01:17:23;100227.53;;;11.93;100.00
10071;BME280;5074;53.720;10.014;2022-09-14T01:20:06;100238.06;;;11.97;100.00
10071;BME280;5074;53.720;10.014;2022-09-14T01:22:48;100237.19;;;11.97;100.00
10071;BME280;5074;53.720;10.014;2022-09-14T01:25:47;100239.84;;;11.97;100.00
10071;BME280;5074;53.720;10.014;2022-09-14T01:28:22;100239.19;;;11.92;100.00
10071;BME280;5074;53.720;10.014;2022-09-14T01:30:54;100244.44;;;11.95;100.00
10071;BME280;5074;53.720;10.014;2022-09-14T01:33:30;100248.09;;;11.92;100.00
10071;BME280;5074;53.720;10.014;2022-09-14T01:36:01;100228.16;;;11.80;100.00
10071;BME280;5074;53.720;10.014;2022-09-14T01:38:36;100255.34;;;11.90;100.00
10071;BME280;5074;53.720;10.014;2022-09-14T01:41:08;100249.25;;;11.87;100.00
10071;BME280;5074;53.720;10.014;2022-09-14T01:43:42;100255.63;;;11.84;100.00
10071;BME280;5074;53.720;10.014;2022-09-14T01:46:14;100252.25;;;11.80;100.00
10071;BME280;5074;53.720;10.014;2022-09-14T01:48:47;100251.34;;;11.80;100.00
10071;BME280;5074;53.720;10.014;2022-09-14T01:51:20;100248.13;;;11.73;100.00
10071;BME280;5074;53.720;10.014;2022-09-14T01:53:52;100250.81;;;11.73;100.00
10071;BME280;5074;53.720;10.014;2022-09-14T01:56:24;100249.88;;;11.74;100.00
10071;BME280;5074;53.720;10.014;2022-09-14T01:59:02;100247.38;;;11.70;100.00
10071;BME280;5074;53.720;10.014;2022-09-14T02:01:34;100252.91;;;11.67;100.00
10071;BME280;5074;53.720;10.014;2022-09-14T02:04:06;100251.16;;;11.65;100.00
10071;BME280;5074;53.720;10.014;2022-09-14T02:06:39;100241.41;;;11.64;100.00
10071;BME280;5074;53.720;10.014;2022-09-14T02:09:11;100252.25;;;11.61;100.00
10071;BME280;5074;53.720;10.014;2022-09-14T02:11:39;100250.59;;;11.59;100.00
10071;BME280;5074;53.720;10.014;2022-09-14T02:14:09;100250.66;;;11.57;100.00
10071;BME280;5074;53.720;10.014;2022-09-14T02:16:37;100242.78;;;11.54;100.00
10071;BME280;5074;53.720;10.014;2022-09-14T02:19:09;100242.94;;;11.51;100.00
10071;BME280;5074;53.720;10.014;2022-09-14T02:21:37;100249.31;;;11.49;100.00
10071;BME280;5074;53.720;10.014;2022-09-14T02:24:06;100244.97;;;11.46;100.00
10071;BME280;5074;53.720;10.014;2022-09-14T02:26:35;100243.94;;;11.49;100.00
10071;BME280;5074;53.720;10.014;2022-09-14T02:29:03;100244.03;;;11.47;100.00
10071;BME280;5074;53.720;10.014;2022-09-14T02:31:45;100243.81;;;11.52;100.00
10071;BME280;5074;53.720;10.014;2022-09-14T02:34:25;100242.06;;;11.51;100.00
10071;BME280;5074;53.720;10.014;2022-09-14T02:37:00;100237.84;;;11.45;100.00
10071;BME280;5074;53.720;10.014;2022-09-14T02:39:37;100243.88;;;11.50;100.00
10071;BME280;5074;53.720;10.014;2022-09-14T02:42:14;100237.63;;;11.50;100.00
10071;BME280;5074;53.720;10.014;2022-09-14T02:44:56;100238.66;;;11.47;100.00
10071;BME280;5074;53.720;10.014;2022-09-14T02:47:29;100232.50;;;11.45;100.00
10071;BME280;5074;53.720;10.014;2022-09-14T02:50:05;100224.56;;;11.43;100.00
10071;BME280;5074;53.720;10.014;2022-09-14T02:52:47;100221.94;;;11.42;100.00
10071;BME280;5074;53.720;10.014;2022-09-14T02:55:19;100229.13;;;11.41;100.00
10071;BME280;5074;53.720;10.014;2022-09-14T02:57:58;100229.91;;;11.43;100.00
10071;BME280;5074;53.720;10.014;2022-09-14T03:00:28;100226.66;;;11.37;100.00
10071;BME280;5074;53.720;10.014;2022-09-14T03:02:57;100234.69;;;11.37;100.00
10071;BME280;5074;53.720;10.014;2022-09-14T03:05:25;100238.44;;;11.33;100.00
10071;BME280;5074;53.720;10.014;2022-09-14T03:07:53;100224.63;;;11.23;100.00
10071;BME280;5074;53.720;10.014;2022-09-14T03:10:21;100233.59;;;11.22;100.00
10071;BME280;5074;53.720;10.014;2022-09-14T03:12:49;100227.59;;;11.17;100.00
10071;BME280;5074;53.720;10.014;2022-09-14T03:15:17;100225.84;;;11.16;100.00
10071;BME280;5074;53.720;10.014;2022-09-14T03:17:45;100229.38;;;11.16;100.00
10071;BME280;5074;53.720;10.014;2022-09-14T03:20:16;100226.16;;;11.09;100.00
10071;BME280;5074;53.720;10.014;2022-09-14T03:22:45;100232.28;;;11.11;100.00
10071;BME280;5074;53.720;10.014;2022-09-14T03:25:13;100233.72;;;11.00;100.00
10071;BME280;5074;53.720;10.014;2022-09-14T03:27:41;100230.75;;;11.06;100.00
10071;BME280;5074;53.720;10.014;2022-09-14T03:30:10;100231.66;;;11.06;100.00
10071;BME280;5074;53.720;10.014;2022-09-14T03:32:38;100224.53;;;11.05;100.00
10071;BME280;5074;53.720;10.014;2022-09-14T03:35:07;100232.66;;;11.04;100.00
10071;BME280;5074;53.720;10.014;2022-09-14T03:37:37;100222.81;;;11.04;100.00
10071;BME280;5074;53.720;10.014;2022-09-14T03:40:07;100218.38;;;11.03;100.00
10071;BME280;5074;53.720;10.014;2022-09-14T03:42:35;100196.66;;;10.92;100.00
10071;BME280;5074;53.720;10.014;2022-09-14T03:45:04;100197.06;;;11.02;100.00
10071;BME280;5074;53.720;10.014;2022-09-14T03:47:32;100197.06;;;11.02;100.00
10071;BME280;5074;53.720;10.014;2022-09-14T03:50:00;100193.59;;;11.00;100.00
10071;BME280;5074;53.720;10.014;2022-09-14T03:52:28;100193.59;;;11.00;100.00
10071;BME280;5074;53.720;10.014;2022-09-14T03:54:58;100198.03;;;11.01;100.00
10071;BME280;5074;53.720;10.014;2022-09-14T03:57:26;100192.75;;;10.99;100.00
10071;BME280;5074;53.720;10.014;2022-09-14T03:59:54;100190.34;;;10.93;100.00
10071;BME280;5074;53.720;10.014;2022-09-14T04:02:22;100190.25;;;10.94;100.00
10071;BME280;5074;53.720;10.014;2022-09-14T04:04:50;100195.44;;;10.99;100.00
10071;BME280;5074;53.720;10.014;2022-09-14T04:07:18;100184.72;;;10.99;100.00
10071;BME280;5074;53.720;10.014;2022-09-14T04:09:46;100181.16;;;10.99;100.00
10071;BME280;5074;53.720;10.014;2022-09-14T04:12:15;100176.81;;;10.96;100.00
10071;BME280;5074;53.720;10.014;2022-09-14T04:14:43;100176.19;;;10.91;100.00
10071;BME280;5074;53.720;10.014;2022-09-14T04:17:11;100175.75;;;11.00;100.00
10071;BME280;5074;53.720;10.014;2022-09-14T04:19:39;100177.19;;;11.07;100.00
10071;BME280;5074;53.720;10.014;2022-09-14T04:22:07;100179.66;;;11.12;100.00
10071;BME280;5074;53.720;10.014;2022-09-14T04:24:35;100176.78;;;11.17;100.00
10071;BME280;5074;53.720;10.014;2022-09-14T04:27:03;100174.66;;;11.23;100.00
10071;BME280;5074;53.720;10.014;2022-09-14T04:29:33;100170.91;;;11.27;100.00
10071;BME280;5074;53.720;10.014;2022-09-14T04:32:01;100177.00;;;11.31;100.00
10071;BME280;5074;53.720;10.014;2022-09-14T04:34:30;100172.50;;;11.32;100.00
10071;BME280;5074;53.720;10.014;2022-09-14T04:36:58;100175.84;;;11.37;100.00
10071;BME280;5074;53.720;10.014;2022-09-14T04:39:26;100168.44;;;11.42;100.00
10071;BME280;5074;53.720;10.014;2022-09-14T04:41:54;100179.13;;;11.42;100.00
10071;BME280;5074;53.720;10.014;2022-09-14T04:44:22;100185.31;;;11.44;100.00
10071;BME280;5074;53.720;10.014;2022-09-14T04:46:51;100187.75;;;11.49;100.00
10071;BME280;5074;53.720;10.014;2022-09-14T04:49:19;100183.91;;;11.54;100.00
10071;BME280;5074;53.720;10.014;2022-09-14T04:51:47;100187.53;;;11.53;100.00
10071;BME280;5074;53.720;10.014;2022-09-14T04:54:16;100186.38;;;11.59;100.00
10071;BME280;5074;53.720;10.014;2022-09-14T04:56:44;100186.22;;;11.62;100.00
10071;BME280;5074;53.720;10.014;2022-09-14T04:59:12;100188.81;;;11.63;100.00
10071;BME280;5074;53.720;10.014;2022-09-14T05:01:43;100193.38;;;11.61;100.00
10071;BME280;5074;53.720;10.014;2022-09-14T05:04:15;100195.81;;;11.66;100.00
10071;BME280;5074;53.720;10.014;2022-09-14T05:06:43;100198.59;;;11.64;100.00
10071;BME280;5074;53.720;10.014;2022-09-14T05:09:12;100188.66;;;11.67;100.00
10071;BME280;5074;53.720;10.014;2022-09-14T05:11:41;100189.38;;;11.70;100.00
10071;BME280;5074;53.720;10.014;2022-09-14T05:14:10;100196.44;;;11.71;100.00
10071;BME280;5074;53.720;10.014;2022-09-14T05:16:41;100192.75;;;11.74;100.00
10071;BME280;5074;53.720;10.014;2022-09-14T05:19:12;100189.16;;;11.75;100.00
10071;BME280;5074;53.720;10.014;2022-09-14T05:21:42;100191.09;;;11.71;100.00
10071;BME280;5074;53.720;10.014;2022-09-14T05:24:11;100190.91;;;11.76;100.00
10071;BME280;5074;53.720;10.014;2022-09-14T05:26:41;100180.09;;;11.77;100.00
10071;BME280;5074;53.720;10.014;2022-09-14T05:29:11;100179.22;;;11.77;100.00
10071;BME280;5074;53.720;10.014;2022-09-14T05:31:39;100177.59;;;11.74;100.00
10071;BME280;5074;53.720;10.014;2022-09-14T05:34:08;100179.22;;;11.77;100.00
10071;BME280;5074;53.720;10.014;2022-09-14T05:36:36;100176.47;;;11.78;100.00
10071;BME280;5074;53.720;10.014;2022-09-14T05:39:07;100172.94;;;11.78;100.00
10071;BME280;5074;53.720;10.014;2022-09-14T05:41:35;100177.97;;;11.84;100.00
10071;BME280;5074;53.720;10.014;2022-09-14T05:44:04;100175.94;;;11.89;100.00
10071;BME280;5074;53.720;10.014;2022-09-14T05:46:32;100181.38;;;11.88;100.00
10071;BME280;5074;53.720;10.014;2022-09-14T05:49:00;100181.94;;;11.94;100.00
10071;BME280;5074;53.720;10.014;2022-09-14T05:51:29;100188.88;;;11.98;100.00
10071;BME280;5074;53.720;10.014;2022-09-14T05:53:57;100187.63;;;12.06;100.00
10071;BME280;5074;53.720;10.014;2022-09-14T05:56:28;100188.44;;;12.08;100.00
10071;BME280;5074;53.720;10.014;2022-09-14T05:58:57;100190.88;;;12.12;100.00
10071;BME280;5074;53.720;10.014;2022-09-14T06:01:27;100183.41;;;12.19;100.00
10071;BME280;5074;53.720;10.014;2022-09-14T06:03:58;100186.00;;;12.21;100.00
10071;BME280;5074;53.720;10.014;2022-09-14T06:06:28;100187.72;;;12.22;100.00
10071;BME280;5074;53.720;10.014;2022-09-14T06:08:57;100191.13;;;12.25;100.00
10071;BME280;5074;53.720;10.014;2022-09-14T06:11:26;100183.94;;;12.26;100.00
10071;BME280;5074;53.720;10.014;2022-09-14T06:13:56;100188.03;;;12.33;100.00
10071;BME280;5074;53.720;10.014;2022-09-14T06:16:25;100191.28;;;12.40;100.00
10071;BME280;5074;53.720;10.014;2022-09-14T06:18:55;100186.59;;;12.43;100.00
10071;BME280;5074;53.720;10.014;2022-09-14T06:21:27;100187.41;;;12.45;100.00
10071;BME280;5074;53.720;10.014;2022-09-14T06:23:55;100187.00;;;12.53;100.00
10071;BME280;5074;53.720;10.014;2022-09-14T06:26:24;100182.38;;;12.57;100.00
10071;BME280;5074;53.720;10.014;2022-09-14T06:28:53;100176.03;;;12.58;100.00
10071;BME280;5074;53.720;10.014;2022-09-14T06:31:22;100180.38;;;12.60;100.00
10071;BME280;5074;53.720;10.014;2022-09-14T06:33:51;100168.25;;;12.53;100.00
10071;BME280;5074;53.720;10.014;2022-09-14T06:36:21;100189.81;;;12.67;100.00
10071;BME280;5074;53.720;10.014;2022-09-14T06:38:50;100187.91;;;12.69;100.00
10071;BME280;5074;53.720;10.014;2022-09-14T06:41:19;100183.34;;;12.72;100.00
10071;BME280;5074;53.720;10.014;2022-09-14T06:43:49;100185.88;;;12.75;100.00
10071;BME280;5074;53.720;10.014;2022-09-14T06:46:19;100184.19;;;12.72;100.00
10071;BME280;5074;53.720;10.014;2022-09-14T06:48:51;100188.53;;;12.75;100.00
10071;BME280;5074;53.720;10.014;2022-09-14T06:51:21;100171.44;;;12.77;100.00
10071;BME280;5074;53.720;10.014;2022-09-14T06:53:50;100167.09;;;12.75;100.00
10071;BME280;5074;53.720;10.014;2022-09-14T06:56:19;100170.63;;;12.75;100.00
10071;BME280;5074;53.720;10.014;2022-09-14T06:58:48;100176.97;;;12.74;100.00
10071;BME280;5074;53.720;10.014;2022-09-14T07:01:18;100169.59;;;12.78;100.00
10071;BME280;5074;53.720;10.014;2022-09-14T07:03:48;100179.22;;;12.82;100.00
10071;BME280;5074;53.720;10.014;2022-09-14T07:06:19;100178.88;;;12.88;100.00
10071;BME280;5074;53.720;10.014;2022-09-14T07:08:48;100176.47;;;12.99;100.00
10071;BME280;5074;53.720;10.014;2022-09-14T07:11:19;100175.28;;;13.05;100.00
10071;BME280;5074;53.720;10.014;2022-09-14T07:13:48;100175.28;;;13.05;100.00
10071;BME280;5074;53.720;10.014;2022-09-14T07:16:16;100185.53;;;13.14;100.00
10071;BME280;5074;53.720;10.014;2022-09-14T07:18:44;100180.41;;;13.26;100.00
10071;BME280;5074;53.720;10.014;2022-09-14T07:21:15;100184.94;;;13.41;100.00
10071;BME280;5074;53.720;10.014;2022-09-14T07:23:45;100184.94;;;13.57;100.00
10071;BME280;5074;53.720;10.014;2022-09-14T07:26:15;100183.66;;;13.64;100.00
10071;BME280;5074;53.720;10.014;2022-09-14T07:28:46;100184.16;;;13.71;100.00
10071;BME280;5074;53.720;10.014;2022-09-14T07:31:16;100179.28;;;13.78;100.00
10071;BME280;5074;53.720;10.014;2022-09-14T07:33:45;100180.47;;;13.88;100.00
10071;BME280;5074;53.720;10.014;2022-09-14T07:36:14;100177.00;;;14.02;100.00
10071;BME280;5074;53.720;10.014;2022-09-14T07:38:42;100171.56;;;14.18;100.00
10071;BME280;5074;53.720;10.014;2022-09-14T07:41:19;100178.72;;;14.33;100.00
10071;BME280;5074;53.720;10.014;2022-09-14T07:43:48;100166.03;;;14.35;100.00
10071;BME280;5074;53.720;10.014;2022-09-14T07:46:17;100184.41;;;14.43;100.00
10071;BME280;5074;53.720;10.014;2022-09-14T07:48:47;100183.72;;;14.39;100.00
10071;BME280;5074;53.720;10.014;2022-09-14T07:51:17;100195.75;;;14.48;100.00
10071;BME280;5074;53.720;10.014;2022-09-14T07:53:45;100195.34;;;14.54;100.00
10071;BME280;5074;53.720;10.014;2022-09-14T07:56:13;100186.25;;;14.57;100.00
10071;BME280;5074;53.720;10.014;2022-09-14T07:58:42;100188.19;;;14.55;100.00
10071;BME280;5074;53.720;10.014;2022-09-14T08:01:12;100187.22;;;14.56;100.00
10071;BME280;5074;53.720;10.014;2022-09-14T08:03:41;100183.84;;;14.52;100.00
10071;BME280;5074;53.720;10.014;2022-09-14T08:06:11;100185.50;;;14.55;100.00
10071;BME280;5074;53.720;10.014;2022-09-14T08:08:42;100177.13;;;14.59;100.00
10071;BME280;5074;53.720;10.014;2022-09-14T08:11:13;100171.94;;;14.56;100.00
10071;BME280;5074;53.720;10.014;2022-09-14T08:13:43;100170.91;;;14.59;100.00
10071;BME280;5074;53.720;10.014;2022-09-14T08:16:12;100169.91;;;14.60;100.00
10071;BME280;5074;53.720;10.014;2022-09-14T08:18:41;100167.75;;;14.67;100.00
10071;BME280;5074;53.720;10.014;2022-09-14T08:21:10;100175.34;;;14.74;100.00
10071;BME280;5074;53.720;10.014;2022-09-14T08:23:40;100172.00;;;14.85;100.00
10071;BME280;5074;53.720;10.014;2022-09-14T08:26:10;100172.47;;;14.92;100.00
10071;BME280;5074;53.720;10.014;2022-09-14T08:28:39;100172.47;;;14.92;100.00
10071;BME280;5074;53.720;10.014;2022-09-14T08:31:09;100171.03;;;15.01;100.00
10071;BME280;5074;53.720;10.014;2022-09-14T08:33:39;100168.72;;;15.09;100.00
10071;BME280;5074;53.720;10.014;2022-09-14T08:36:08;100174.00;;;15.10;100.00
10071;BME280;5074;53.720;10.014;2022-09-14T08:38:36;100172.75;;;15.16;100.00
10071;BME280;5074;53.720;10.014;2022-09-14T08:41:13;100168.06;;;15.05;100.00
10071;BME280;5074;53.720;10.014;2022-09-14T08:43:45;100159.97;;;15.20;100.00
10071;BME280;5074;53.720;10.014;2022-09-14T08:46:20;100163.31;;;15.23;100.00
10071;BME280;5074;53.720;10.014;2022-09-14T08:48:51;100160.47;;;15.39;100.00
10071;BME280;5074;53.720;10.014;2022-09-14T08:51:20;100146.72;;;15.44;100.00
10071;BME280;5074;53.720;10.014;2022-09-14T08:53:50;100147.19;;;15.51;100.00
10071;BME280;5074;53.720;10.014;2022-09-14T08:56:23;100141.50;;;15.55;100.00
10071;BME280;5074;53.720;10.014;2022-09-14T08:59:04;100148.94;;;15.52;100.00
10071;BME280;5074;53.720;10.014;2022-09-14T09:01:41;100141.09;;;15.61;100.00
10071;BME280;5074;53.720;10.014;2022-09-14T09:04:35;100152.31;;;15.68;100.00
10071;BME280;5074;53.720;10.014;2022-09-14T09:07:10;100145.44;;;15.77;100.00
10071;BME280;5074;53.720;10.014;2022-09-14T09:09:43;100143.25;;;15.84;100.00
10071;BME280;5074;53.720;10.014;2022-09-14T09:12:15;100147.47;;;15.88;100.00
10071;BME280;5074;53.720;10.014;2022-09-14T09:14:48;100138.50;;;15.87;100.00
10071;BME280;5074;53.720;10.014;2022-09-14T09:17:21;100134.16;;;15.99;100.00
10071;BME280;5074;53.720;10.014;2022-09-14T09:20:00;100142.03;;;16.15;100.00
10071;BME280;5074;53.720;10.014;2022-09-14T09:22:34;100139.25;;;16.17;100.00
10071;BME280;5074;53.720;10.014;2022-09-14T09:25:12;100143.25;;;16.24;100.00
10071;BME280;5074;53.720;10.014;2022-09-14T09:27:43;100140.66;;;16.35;100.00
10071;BME280;5074;53.720;10.014;2022-09-14T09:30:13;100138.38;;;16.42;100.00
10071;BME280;5074;53.720;10.014;2022-09-14T09:32:42;100132.38;;;16.51;100.00
10071;BME280;5074;53.720;10.014;2022-09-14T09:35:14;100138.81;;;16.36;100.00
10071;BME280;5074;53.720;10.014;2022-09-14T09:37:43;100140.56;;;16.37;100.00
10071;BME280;5074;53.720;10.014;2022-09-14T09:40:16;100126.31;;;16.35;100.00
10071;BME280;5074;53.720;10.014;2022-09-14T09:43:05;100127.31;;;16.34;100.00
10071;BME280;5074;53.720;10.014;2022-09-14T09:45:49;100120.16;;;16.20;100.00
10071;BME280;5074;53.720;10.014;2022-09-14T09:48:19;100131.66;;;16.09;100.00
10071;BME280;5074;53.720;10.014;2022-09-14T09:50:50;100123.91;;;16.04;100.00
10071;BME280;5074;53.720;10.014;2022-09-14T09:53:21;100116.59;;;16.06;100.00
10071;BME280;5074;53.720;10.014;2022-09-14T09:55:50;100119.47;;;16.03;100.00
10071;BME280;5074;53.720;10.014;2022-09-14T09:58:30;100110.19;;;15.94;100.00
10071;BME280;5074;53.720;10.014;2022-09-14T10:01:00;100110.00;;;15.97;100.00
10071;BME280;5074;53.720;10.014;2022-09-14T10:03:31;100107.94;;;16.01;100.00
10071;BME280;5074;53.720;10.014;2022-09-14T10:06:06;100105.16;;;16.15;100.00
10071;BME280;5074;53.720;10.014;2022-09-14T10:08:40;100104.63;;;16.23;100.00
10071;BME280;5074;53.720;10.014;2022-09-14T10:11:30;100099.44;;;16.33;100.00
10071;BME280;5074;53.720;10.014;2022-09-14T10:14:01;100108.94;;;16.26;100.00
10071;BME280;5074;53.720;10.014;2022-09-14T10:16:34;100105.38;;;16.12;100.00
10071;BME280;5074;53.720;10.014;2022-09-14T10:19:12;100110.53;;;16.03;100.00
10071;BME280;5074;53.720;10.014;2022-09-14T10:22:02;100110.38;;;15.91;100.00
10071;BME280;5074;53.720;10.014;2022-09-14T10:24:33;100102.03;;;15.69;100.00
10071;BME280;5074;53.720;10.014;2022-09-14T10:27:30;100119.56;;;15.61;100.00
10071;BME280;5074;53.720;10.014;2022-09-14T10:30:09;100127.78;;;15.45;100.00
10071;BME280;5074;53.720;10.014;2022-09-14T10:32:40;100133.22;;;15.31;100.00
10071;BME280;5074;53.720;10.014;2022-09-14T10:35:14;100124.50;;;15.13;100.00
10071;BME280;5074;53.720;10.014;2022-09-14T10:37:50;100112.28;;;15.07;100.00
10071;BME280;5074;53.720;10.014;2022-09-14T10:40:27;100117.47;;;15.10;100.00
10071;BME280;5074;53.720;10.014;2022-09-14T10:43:06;100112.56;;;15.17;100.00
10071;BME280;5074;53.720;10.014;2022-09-14T10:45:40;100099.47;;;15.25;100.00
10071;BME280;5074;53.720;10.014;2022-09-14T10:48:21;100103.63;;;15.44;100.00
10071;BME280;5074;53.720;10.014;2022-09-14T10:51:13;100110.84;;;15.71;100.00
10071;BME280;5074;53.720;10.014;2022-09-14T10:53:51;100100.50;;;15.92;100.00
10071;BME280;5074;53.720;10.014;2022-09-14T10:56:23;100097.06;;;16.15;100.00
10071;BME280;5074;53.720;10.014;2022-09-14T10:59:15;100098.38;;;16.36;100.00
10071;BME280;5074;53.720;10.014;2022-09-14T11:04:52;100090.28;;;16.36;100.00
10071;BME280;5074;53.720;10.014;2022-09-14T11:07:31;100090.81;;;16.41;100.00
10071;BME280;5074;53.720;10.014;2022-09-14T11:10:09;100092.44;;;16.30;100.00
10071;BME280;5074;53.720;10.014;2022-09-14T11:12:44;100094.94;;;16.34;100.00
10071;BME280;5074;53.720;10.014;2022-09-14T11:15:20;100092.31;;;16.32;100.00
10071;BME280;5074;53.720;10.014;2022-09-14T11:18:02;100087.16;;;16.42;100.00
10071;BME280;5074;53.720;10.014;2022-09-14T11:20:40;100086.81;;;16.46;100.00
10071;BME280;5074;53.720;10.014;2022-09-14T11:23:18;100089.09;;;16.53;100.00
10071;BME280;5074;53.720;10.014;2022-09-14T11:25:53;100090.69;;;16.55;100.00
10071;BME280;5074;53.720;10.014;2022-09-14T11:28:24;100079.50;;;16.61;100.00
10071;BME280;5074;53.720;10.014;2022-09-14T11:30:58;100081.94;;;16.77;100.00
10071;BME280;5074;53.720;10.014;2022-09-14T11:33:33;100089.25;;;17.01;100.00
10071;BME280;5074;53.720;10.014;2022-09-14T11:36:07;100082.06;;;17.26;100.00
10071;BME280;5074;53.720;10.014;2022-09-14T11:38:41;100080.53;;;17.22;100.00
10071;BME280;5074;53.720;10.014;2022-09-14T11:41:18;100084.78;;;17.13;100.00
10071;BME280;5074;53.720;10.014;2022-09-14T11:43:53;100081.28;;;16.99;100.00
10071;BME280;5074;53.720;10.014;2022-09-14T11:46:26;100089.81;;;16.80;100.00
10071;BME280;5074;53.720;10.014;2022-09-14T11:49:05;100095.56;;;16.63;100.00
10071;BME280;5074;53.720;10.014;2022-09-14T11:51:40;100110.56;;;16.41;100.00
10071;BME280;5074;53.720;10.014;2022-09-14T11:54:13;100107.41;;;16.22;100.00
10071;BME280;5074;53.720;10.014;2022-09-14T11:56:46;100100.44;;;16.19;100.00
10071;BME280;5074;53.720;10.014;2022-09-14T11:59:44;100102.13;;;16.20;100.00
10071;BME280;5074;53.720;10.014;2022-09-14T12:02:59;100097.63;;;16.21;100.00
10071;BME280;5074;53.720;10.014;2022-09-14T12:05:31;100101.41;;;16.18;100.00
10071;BME280;5074;53.720;10.014;2022-09-14T12:14:12;100089.53;;;16.08;100.00
10071;BME280;5074;53.720;10.014;2022-09-14T12:17:03;100092.84;;;15.98;100.00
10071;BME280;5074;53.720;10.014;2022-09-14T12:19:54;100086.34;;;15.88;100.00
10071;BME280;5074;53.720;10.014;2022-09-14T12:22:30;100088.63;;;15.94;100.00
10071;BME280;5074;53.720;10.014;2022-09-14T12:25:11;100094.31;;;15.90;100.00
10071;BME280;5074;53.720;10.014;2022-09-14T12:27:42;100092.69;;;15.87;100.00
10071;BME280;5074;53.720;10.014;2022-09-14T12:30:34;100096.38;;;15.86;100.00
10071;BME280;5074;53.720;10.014;2022-09-14T12:33:41;100092.28;;;15.80;100.00
10071;BME280;5074;53.720;10.014;2022-09-14T12:36:10;100091.09;;;15.85;100.00
10071;BME280;5074;53.720;10.014;2022-09-14T12:38:42;100090.22;;;15.84;100.00
10071;BME280;5074;53.720;10.014;2022-09-14T12:41:57;100087.56;;;15.97;100.00
10071;BME280;5074;53.720;10.014;2022-09-14T12:44:31;100093.41;;;16.17;100.00
10071;BME280;5074;53.720;10.014;2022-09-14T12:47:38;100093.31;;;16.31;100.00
10071;BME280;5074;53.720;10.014;2022-09-14T12:50:14;100086.06;;;16.70;100.00
10071;BME280;5074;53.720;10.014;2022-09-14T12:55:43;100081.31;;;17.24;100.00
10071;BME280;5074;53.720;10.014;2022-09-14T12:58:23;100071.25;;;17.50;100.00
10071;BME280;5074;53.720;10.014;2022-09-14T13:01:08;100087.75;;;19.31;100.00
10071;BME280;5074;53.720;10.014;2022-09-14T13:03:46;100084.50;;;20.13;87.64
10071;BME280;5074;53.720;10.014;2022-09-14T13:06:17;100080.91;;;20.34;83.55
10071;BME280;5074;53.720;10.014;2022-09-14T13:08:47;100076.41;;;20.75;80.70
10071;BME280;5074;53.720;10.014;2022-09-14T13:11:27;100068.56;;;21.32;77.15
10071;BME280;5074;53.720;10.014;2022-09-14T13:13:58;100064.25;;;21.30;68.83
10071;BME280;5074;53.720;10.014;2022-09-14T13:16:36;100070.72;;;20.57;71.72
10071;BME280;5074;53.720;10.014;2022-09-14T13:19:18;100064.16;;;19.54;80.49
10071;BME280;5074;53.720;10.014;2022-09-14T13:21:49;100061.09;;;18.58;87.53